createdAt,value
2023-04-16T00:01:16.034Z,7.60
2023-04-16T00:03:42.797Z,7.60
2023-04-16T00:06:10.665Z,7.60
2023-04-16T00:08:37.416Z,7.60
2023-04-16T00:11:05.705Z,7.60
2023-04-16T00:13:32.307Z,7.60
2023-04-16T00:15:59.179Z,7.60
2023-04-16T00:18:26.173Z,7.60
2023-04-16T00:20:53.478Z,7.60
2023-04-16T00:23:23.062Z,7.60
2023-04-16T00:25:49.696Z,7.60
2023-04-16T00:28:16.434Z,7.60
2023-04-16T00:30:43.186Z,7.60
2023-04-16T00:33:10.035Z,7.60
2023-04-16T00:35:37.704Z,7.60
2023-04-16T00:38:04.299Z,7.60
2023-04-16T00:40:33.917Z,7.50
2023-04-16T00:43:00.570Z,7.60
2023-04-16T00:45:27.319Z,7.60
2023-04-16T00:47:54.164Z,7.60
2023-04-16T00:50:21.577Z,7.50
2023-04-16T00:52:48.647Z,7.60
2023-04-16T00:55:17.625Z,7.60
2023-04-16T00:57:44.733Z,7.60
2023-04-16T01:00:11.824Z,7.60
2023-04-16T01:02:38.813Z,7.60
2023-04-16T01:05:05.764Z,7.60
2023-04-16T01:07:32.372Z,7.60
2023-04-16T01:09:59.391Z,7.70
2023-04-16T01:12:26.347Z,7.70
2023-04-16T01:14:55.335Z,7.60
2023-04-16T01:17:22.035Z,7.70
2023-04-16T01:19:48.687Z,7.70
2023-04-16T01:22:16.362Z,7.70
2023-04-16T01:24:43.103Z,7.70
2023-04-16T01:27:09.718Z,7.70
2023-04-16T01:29:36.379Z,7.70
2023-04-16T01:32:02.994Z,7.70
2023-04-16T01:34:29.682Z,7.70
2023-04-16T01:36:56.291Z,7.70
2023-04-16T01:39:22.925Z,7.70
2023-04-16T01:41:49.541Z,7.70
2023-04-16T01:44:16.175Z,7.70
2023-04-16T01:46:43.066Z,7.70
2023-04-16T01:49:10.011Z,7.60
2023-04-16T01:51:36.710Z,7.60
2023-04-16T01:54:04.274Z,7.70
2023-04-16T01:56:31.011Z,7.60
2023-04-16T01:58:57.741Z,7.60
2023-04-16T02:01:24.600Z,7.60
2023-04-16T02:03:51.806Z,7.70
2023-04-16T02:06:18.883Z,7.60
2023-04-16T02:08:45.577Z,7.70
2023-04-16T02:11:12.160Z,7.60
2023-04-16T02:13:38.995Z,7.60
2023-04-16T02:16:09.128Z,7.60
2023-04-16T02:18:35.846Z,7.60
2023-04-16T02:21:02.574Z,7.60
2023-04-16T02:23:29.621Z,7.60
2023-04-16T02:25:56.468Z,7.50
2023-04-16T02:28:23.547Z,7.50
2023-04-16T02:30:53.382Z,7.60
2023-04-16T02:33:20.292Z,7.50
2023-04-16T02:35:48.676Z,7.50
2023-04-16T02:38:15.408Z,7.50
2023-04-16T02:40:42.074Z,7.60
2023-04-16T02:43:08.759Z,7.60
2023-04-16T02:45:35.587Z,7.60
2023-04-16T02:48:02.586Z,7.60
2023-04-16T02:50:29.421Z,7.60
2023-04-16T02:52:56.115Z,7.60
2023-04-16T02:55:22.856Z,7.50
2023-04-16T02:57:49.405Z,7.50
2023-04-16T03:00:16.316Z,7.50
2023-04-16T03:02:43.086Z,7.50
2023-04-16T03:05:12.397Z,7.50
2023-04-16T03:07:42.297Z,7.50
2023-04-16T03:10:09.248Z,7.50
2023-04-16T03:12:36.249Z,7.50
2023-04-16T03:15:03.285Z,7.60
2023-04-16T03:17:29.957Z,7.50
2023-04-16T03:19:56.924Z,7.50
2023-04-16T03:22:23.669Z,7.50
2023-04-16T03:24:50.333Z,7.50
2023-04-16T03:27:25.649Z,7.50
2023-04-16T03:29:55.133Z,7.60
2023-04-16T03:32:21.778Z,7.60
2023-04-16T03:34:48.521Z,7.50
2023-04-16T03:37:20.463Z,7.50
2023-04-16T03:39:47.346Z,7.50
2023-04-16T03:42:14.047Z,7.50
2023-04-16T03:44:43.258Z,7.50
2023-04-16T03:47:09.912Z,7.50
2023-04-16T03:49:39.336Z,7.50
2023-04-16T03:52:11.213Z,7.50
2023-04-16T03:54:38.939Z,7.50
2023-04-16T03:57:11.742Z,7.60
2023-04-16T03:59:38.420Z,7.50
2023-04-16T04:02:05.220Z,7.50
2023-04-16T04:04:32.041Z,7.60
2023-04-16T04:06:58.883Z,7.50
2023-04-16T04:09:25.602Z,7.60
2023-04-16T04:11:52.257Z,7.50
2023-04-16T04:14:18.889Z,7.50
2023-04-16T04:16:45.755Z,7.50
2023-04-16T04:19:12.542Z,7.50
2023-04-16T04:21:39.289Z,7.60
2023-04-16T04:24:06.144Z,7.50
2023-04-16T04:26:32.788Z,7.50
2023-04-16T04:28:59.460Z,7.50
2023-04-16T04:31:26.463Z,7.50
2023-04-16T04:33:53.076Z,7.50
2023-04-16T04:36:19.700Z,7.50
2023-04-16T04:38:46.639Z,7.50
2023-04-16T04:41:13.338Z,7.50
2023-04-16T04:43:39.926Z,7.50
2023-04-16T04:46:06.629Z,7.50
2023-04-16T04:48:33.414Z,7.60
2023-04-16T04:51:03.544Z,7.60
2023-04-16T04:53:31.645Z,7.60
2023-04-16T04:56:05.382Z,7.60
2023-04-16T04:58:38.254Z,7.60
2023-04-16T05:01:09.343Z,7.70
2023-04-16T05:03:39.700Z,7.70
2023-04-16T05:06:06.779Z,7.70
2023-04-16T05:08:33.621Z,7.70
2023-04-16T05:11:00.392Z,7.70
2023-04-16T05:13:27.150Z,7.70
2023-04-16T05:15:53.718Z,7.70
2023-04-16T05:18:20.325Z,7.70
2023-04-16T05:20:48.124Z,7.70
2023-04-16T05:23:15.656Z,7.70
2023-04-16T05:25:42.302Z,7.70
2023-04-16T05:28:09.804Z,7.70
2023-04-16T05:30:36.530Z,7.70
2023-04-16T05:33:05.849Z,7.70
2023-04-16T05:35:32.732Z,7.70
2023-04-16T05:37:59.446Z,7.70
2023-04-16T05:40:26.239Z,7.80
2023-04-16T05:42:54.873Z,7.70
2023-04-16T05:45:21.475Z,7.80
2023-04-16T05:47:50.910Z,7.80
2023-04-16T05:50:17.568Z,7.70
2023-04-16T05:52:44.183Z,7.70
2023-04-16T05:55:10.938Z,7.70
2023-04-16T05:57:37.419Z,7.80
2023-04-16T06:00:04.265Z,7.70
2023-04-16T06:02:31.457Z,7.80
2023-04-16T06:04:58.108Z,7.80
2023-04-16T06:07:24.715Z,7.80
2023-04-16T06:09:51.467Z,7.80
2023-04-16T06:12:18.039Z,7.80
2023-04-16T06:14:44.617Z,7.80
2023-04-16T06:17:11.209Z,7.80
2023-04-16T06:19:37.763Z,7.80
2023-04-16T06:22:06.397Z,7.80
2023-04-16T06:24:33.097Z,7.90
2023-04-16T06:26:59.715Z,7.90
2023-04-16T06:29:33.725Z,7.90
2023-04-16T06:32:07.454Z,8.00
2023-04-16T06:34:34.190Z,7.90
2023-04-16T06:37:01.159Z,8.00
2023-04-16T06:39:28.087Z,7.90
2023-04-16T06:41:54.705Z,8.00
2023-04-16T06:44:21.329Z,8.00
2023-04-16T06:46:47.960Z,8.00
2023-04-16T06:49:14.554Z,8.00
2023-04-16T06:51:41.650Z,8.00
2023-04-16T06:54:08.335Z,8.10
2023-04-16T06:56:36.516Z,8.10
2023-04-16T06:59:03.936Z,8.00
2023-04-16T07:01:33.933Z,8.00
2023-04-16T07:04:01.042Z,8.00
2023-04-16T07:06:27.771Z,8.00
2023-04-16T07:08:54.410Z,8.00
2023-04-16T07:11:21.227Z,8.10
2023-04-16T07:13:47.976Z,8.00
2023-04-16T07:16:14.706Z,8.00
2023-04-16T07:18:41.357Z,8.00
2023-04-16T07:21:08.542Z,8.00
2023-04-16T07:23:35.302Z,8.00
2023-04-16T07:26:01.910Z,8.00
2023-04-16T07:28:28.657Z,8.00
2023-04-16T07:30:55.593Z,8.00
2023-04-16T07:33:24.471Z,8.00
2023-04-16T07:35:51.461Z,8.10
2023-04-16T07:38:18.049Z,8.10
2023-04-16T07:40:44.663Z,8.10
2023-04-16T07:43:11.493Z,8.10
2023-04-16T07:45:38.053Z,8.10
2023-04-16T07:48:05.466Z,8.20
2023-04-16T07:50:32.193Z,8.10
2023-04-16T07:52:58.775Z,8.20
2023-04-16T07:55:25.354Z,8.10
2023-04-16T07:57:52.314Z,8.20
2023-04-16T08:00:19.018Z,8.20
2023-04-16T08:02:45.950Z,8.30
2023-04-16T08:05:12.881Z,8.30
2023-04-16T08:07:39.605Z,8.30
2023-04-16T08:10:06.508Z,8.30
2023-04-16T08:12:33.198Z,8.30
2023-04-16T08:14:59.928Z,8.30
2023-04-16T08:17:28.362Z,8.30
2023-04-16T08:19:57.826Z,8.40
2023-04-16T08:22:24.726Z,8.40
2023-04-16T08:24:51.445Z,8.40
2023-04-16T08:27:19.615Z,8.40
2023-04-16T08:29:47.447Z,8.30
2023-04-16T08:32:14.204Z,8.30
2023-04-16T08:34:41.521Z,8.30
2023-04-16T08:37:08.307Z,8.30
2023-04-16T08:39:35.379Z,8.40
2023-04-16T08:42:15.197Z,8.40
2023-04-16T08:44:43.936Z,8.40
2023-04-16T08:47:12.571Z,8.50
2023-04-16T08:49:44.093Z,8.50
2023-04-16T08:52:13.139Z,8.40
2023-04-16T08:55:06.876Z,8.40
2023-04-16T08:57:38.868Z,8.40
2023-04-16T09:00:07.474Z,8.50
2023-04-16T09:02:34.492Z,8.50
2023-04-16T09:05:02.693Z,8.60
2023-04-16T09:07:31.718Z,8.60
2023-04-16T09:09:59.524Z,8.70
2023-04-16T09:12:26.340Z,8.80
2023-04-16T09:14:53.084Z,8.80
2023-04-16T09:17:19.752Z,8.80
2023-04-16T09:19:46.410Z,8.80
2023-04-16T09:22:12.997Z,8.80
2023-04-16T09:24:42.444Z,8.90
2023-04-16T09:27:09.138Z,8.90
2023-04-16T09:29:42.029Z,9.00
2023-04-16T09:32:09.892Z,9.10
2023-04-16T09:34:54.260Z,9.10
2023-04-16T09:37:20.984Z,9.10
2023-04-16T09:39:57.932Z,9.20
2023-04-16T09:42:28.026Z,9.30
2023-04-16T09:44:57.238Z,9.40
2023-04-16T09:47:41.862Z,9.40
2023-04-16T09:50:11.265Z,9.40
2023-04-16T09:52:41.364Z,9.50
2023-04-16T09:55:08.195Z,9.60
2023-04-16T09:57:37.667Z,9.70
2023-04-16T10:00:05.706Z,9.90
2023-04-16T10:02:34.616Z,10.20
2023-04-16T10:05:04.793Z,10.50
2023-04-16T10:07:58.495Z,10.90
2023-04-16T10:10:25.468Z,11.40
2023-04-16T10:12:52.300Z,11.60
2023-04-16T10:15:19.034Z,11.50
2023-04-16T10:17:45.850Z,11.50
2023-04-16T10:20:12.770Z,11.40
2023-04-16T10:22:39.462Z,11.20
2023-04-16T10:25:07.167Z,11.00
2023-04-16T10:27:33.799Z,11.10
2023-04-16T10:30:03.544Z,11.00
2023-04-16T10:32:32.825Z,11.30
2023-04-16T10:34:59.568Z,11.10
2023-04-16T10:37:30.214Z,11.20
2023-04-16T10:39:57.999Z,11.00
2023-04-16T10:42:25.979Z,11.00
2023-04-16T10:44:53.855Z,10.80
2023-04-16T10:47:24.426Z,10.90
2023-04-16T10:49:51.131Z,10.90
2023-04-16T10:52:20.109Z,10.80
2023-04-16T10:54:48.410Z,10.60
2023-04-16T10:57:17.370Z,10.60
2023-04-16T10:59:44.668Z,10.80
2023-04-16T11:02:18.361Z,10.90
2023-04-16T11:04:46.448Z,11.00
2023-04-16T11:07:19.125Z,11.10
2023-04-16T11:09:52.140Z,11.10
2023-04-16T11:12:20.122Z,11.10
2023-04-16T11:14:47.815Z,11.20
2023-04-16T11:17:14.400Z,11.20
2023-04-16T11:19:42.465Z,11.20
2023-04-16T11:22:11.870Z,11.20
2023-04-16T11:24:41.637Z,11.30
2023-04-16T11:27:08.587Z,11.30
2023-04-16T11:29:35.353Z,11.10
2023-04-16T11:32:02.012Z,11.30
2023-04-16T11:34:28.758Z,11.30
2023-04-16T11:36:55.477Z,11.40
2023-04-16T11:39:22.802Z,11.30
2023-04-16T11:41:52.264Z,11.40
2023-04-16T11:44:23.069Z,11.70
2023-04-16T11:46:51.009Z,11.80
2023-04-16T11:49:18.098Z,11.90
2023-04-16T11:51:45.766Z,11.90
2023-04-16T11:54:19.671Z,12.10
2023-04-16T11:56:47.855Z,11.90
2023-04-16T11:59:16.605Z,11.90
2023-04-16T12:01:47.266Z,12.10
2023-04-16T12:04:15.886Z,11.90
2023-04-16T12:07:01.208Z,12.10
2023-04-16T12:09:27.966Z,12.10
2023-04-16T12:11:54.700Z,12.10
2023-04-16T12:14:21.563Z,12.40
2023-04-16T12:16:48.432Z,12.60
2023-04-16T12:19:15.240Z,12.50
2023-04-16T12:21:43.466Z,12.50
2023-04-16T12:24:11.401Z,12.30
2023-04-16T12:26:43.802Z,12.10
2023-04-16T12:29:28.332Z,12.30
2023-04-16T12:31:55.069Z,12.50
2023-04-16T12:34:21.857Z,12.80
2023-04-16T12:37:07.514Z,13.10
2023-04-16T12:39:34.130Z,13.50
2023-04-16T12:42:00.967Z,13.40
2023-04-16T12:44:29.391Z,13.60
2023-04-16T12:46:56.432Z,13.40
2023-04-16T12:49:23.277Z,12.90
2023-04-16T12:51:49.910Z,12.80
2023-04-16T12:54:18.926Z,12.40
2023-04-16T12:56:46.805Z,12.20
2023-04-16T12:59:16.623Z,12.40
2023-04-16T13:01:43.365Z,12.40
2023-04-16T13:04:10.291Z,12.60
2023-04-16T13:06:37.858Z,12.60
2023-04-16T13:09:04.880Z,12.80
2023-04-16T13:11:31.923Z,13.40
2023-04-16T13:13:58.771Z,13.90
2023-04-16T13:16:26.084Z,14.20
2023-04-16T13:18:52.872Z,14.70
2023-04-16T13:21:19.499Z,15.10
2023-04-16T13:23:46.183Z,15.00
2023-04-16T13:26:16.963Z,15.90
2023-04-16T13:28:43.610Z,15.10
2023-04-16T13:31:10.259Z,15.10
2023-04-16T13:33:38.059Z,14.30
2023-04-16T13:36:04.954Z,13.90
2023-04-16T13:38:31.634Z,13.70
2023-04-16T13:40:58.333Z,13.50
2023-04-16T13:43:25.092Z,13.40
2023-04-16T13:45:51.862Z,13.10
2023-04-16T13:48:18.580Z,13.30
2023-04-16T13:50:48.309Z,13.20
2023-04-16T13:53:14.995Z,13.20
2023-04-16T13:55:42.384Z,13.60
2023-04-16T13:58:09.322Z,13.80
2023-04-16T14:00:36.057Z,14.10
2023-04-16T14:03:02.900Z,14.10
2023-04-16T14:05:29.586Z,14.20
2023-04-16T14:07:56.356Z,14.10
2023-04-16T14:10:22.990Z,14.00
2023-04-16T14:12:50.019Z,13.80
2023-04-16T14:15:16.874Z,13.70
2023-04-16T14:17:44.225Z,13.50
2023-04-16T14:20:12.436Z,13.40
2023-04-16T14:22:39.567Z,13.20
2023-04-16T14:25:07.020Z,13.00
2023-04-16T14:27:34.210Z,12.80
2023-04-16T14:30:00.948Z,12.80
2023-04-16T14:32:27.596Z,12.90
2023-04-16T14:34:54.167Z,13.10
2023-04-16T14:37:20.863Z,13.30
2023-04-16T14:39:47.383Z,13.30
2023-04-16T14:42:16.381Z,13.30
2023-04-16T14:44:43.051Z,13.30
2023-04-16T14:47:10.008Z,13.30
2023-04-16T14:49:36.692Z,13.40
2023-04-16T14:52:05.448Z,13.40
2023-04-16T14:54:32.993Z,13.30
2023-04-16T14:56:59.891Z,13.40
2023-04-16T14:59:26.421Z,13.40
2023-04-16T15:01:53.134Z,13.20
2023-04-16T15:04:19.896Z,13.10
2023-04-16T15:06:46.974Z,13.00
2023-04-16T15:09:13.606Z,13.00
2023-04-16T15:11:40.406Z,12.80
2023-04-16T15:14:07.177Z,13.00
2023-04-16T15:16:36.865Z,13.00
2023-04-16T15:19:05.084Z,13.00
2023-04-16T15:21:32.119Z,13.10
2023-04-16T15:23:59.143Z,13.20
2023-04-16T15:26:26.093Z,13.00
2023-04-16T15:28:52.945Z,13.00
2023-04-16T15:31:20.803Z,13.10
2023-04-16T15:33:47.926Z,13.20
2023-04-16T15:36:14.857Z,13.30
2023-04-16T15:38:41.925Z,13.30
2023-04-16T15:41:09.463Z,13.30
2023-04-16T15:43:36.187Z,13.40
2023-04-16T15:46:02.857Z,13.20
2023-04-16T15:48:29.426Z,13.40
2023-04-16T15:50:56.119Z,13.30
2023-04-16T15:53:22.833Z,13.60
2023-04-16T15:55:52.417Z,13.70
2023-04-16T15:58:19.274Z,13.60
2023-04-16T16:00:49.652Z,13.70
2023-04-16T16:03:17.633Z,13.60
2023-04-16T16:05:46.260Z,13.70
2023-04-16T16:08:12.973Z,13.50
2023-04-16T16:10:40.929Z,13.50
2023-04-16T16:13:12.089Z,13.50
2023-04-16T16:15:39.389Z,13.70
2023-04-16T16:18:05.933Z,13.90
2023-04-16T16:20:32.573Z,13.80
2023-04-16T16:22:59.115Z,13.90
2023-04-16T16:25:25.654Z,13.70
2023-04-16T16:27:52.857Z,13.70
2023-04-16T16:30:21.949Z,13.60
2023-04-16T16:32:49.003Z,13.60
2023-04-16T16:35:15.662Z,13.50
2023-04-16T16:37:42.410Z,13.40
2023-04-16T16:40:11.639Z,13.20
2023-04-16T16:42:40.940Z,13.10
2023-04-16T16:45:07.917Z,13.00
2023-04-16T16:47:34.531Z,13.10
2023-04-16T16:50:02.893Z,13.10
2023-04-16T16:52:29.867Z,13.30
2023-04-16T16:54:56.797Z,13.30
2023-04-16T16:57:27.040Z,13.20
2023-04-16T17:02:19.986Z,13.00
2023-04-16T17:04:46.585Z,13.00
2023-04-16T17:07:13.299Z,12.90
2023-04-16T17:09:39.928Z,12.70
2023-04-16T17:12:06.714Z,12.60
2023-04-16T17:14:33.636Z,12.60
2023-04-16T17:17:00.278Z,12.50
2023-04-16T17:19:27.378Z,12.40
2023-04-16T17:21:54.025Z,12.40
2023-04-16T17:24:20.671Z,12.40
2023-04-16T17:26:47.299Z,12.40
2023-04-16T17:29:13.815Z,12.40
2023-04-16T17:31:40.476Z,12.40
2023-04-16T17:34:07.116Z,12.30
2023-04-16T17:36:33.753Z,12.20
2023-04-16T17:39:00.461Z,12.10
2023-04-16T17:41:27.086Z,12.00
2023-04-16T17:43:53.697Z,11.90
2023-04-16T17:46:20.457Z,11.80
2023-04-16T17:48:50.254Z,11.80
2023-04-16T17:51:16.799Z,11.70
2023-04-16T17:53:44.646Z,11.70
2023-04-16T17:56:11.636Z,11.70
2023-04-16T17:58:38.290Z,11.70
2023-04-16T18:01:05.422Z,11.70
2023-04-16T18:03:32.497Z,11.70
2023-04-16T18:05:59.432Z,11.70
2023-04-16T18:08:26.190Z,11.60
2023-04-16T18:10:54.746Z,11.60
2023-04-16T18:13:21.598Z,11.60
2023-04-16T18:15:48.261Z,11.60
2023-04-16T18:18:15.196Z,11.50
2023-04-16T18:20:41.836Z,11.50
2023-04-16T18:23:08.557Z,11.50
2023-04-16T18:25:48.878Z,11.50
2023-04-16T18:28:15.892Z,11.50
2023-04-16T18:30:42.895Z,11.50
2023-04-16T18:35:40.473Z,11.50
2023-04-16T18:38:07.199Z,11.50
2023-04-16T18:40:34.673Z,11.50
2023-04-16T18:43:01.370Z,11.60
2023-04-16T18:45:28.343Z,11.60
2023-04-16T18:47:58.650Z,11.60
2023-04-16T18:50:26.027Z,11.60
2023-04-16T18:52:52.693Z,11.70
2023-04-16T18:55:19.936Z,11.70
2023-04-16T18:57:46.647Z,11.80
2023-04-16T19:02:39.320Z,11.70
2023-04-16T19:05:06.252Z,11.70
2023-04-16T19:07:32.982Z,11.60
2023-04-16T19:10:02.493Z,11.60
2023-04-16T19:12:29.231Z,11.50
2023-04-16T19:14:55.835Z,11.50
2023-04-16T19:17:22.488Z,11.30
2023-04-16T19:19:49.066Z,11.20
2023-04-16T19:22:15.795Z,11.10
2023-04-16T19:24:42.424Z,11.00
2023-04-16T19:27:09.048Z,11.00
2023-04-16T19:29:35.739Z,10.90
2023-04-16T19:32:02.807Z,10.90
2023-04-16T19:34:29.592Z,10.90
2023-04-16T19:36:56.219Z,10.90
2023-04-16T19:39:25.836Z,10.80
2023-04-16T19:41:52.496Z,10.80
2023-04-16T19:44:19.517Z,10.90
2023-04-16T19:46:46.262Z,10.90
2023-04-16T19:49:13.192Z,10.80
2023-04-16T19:51:39.944Z,10.90
2023-04-16T19:54:06.614Z,10.90
2023-04-16T19:56:33.309Z,10.90
2023-04-16T19:59:00.864Z,10.90
2023-04-16T20:01:28.123Z,10.90
2023-04-16T20:03:54.831Z,10.90
2023-04-16T20:06:21.492Z,10.90
2023-04-16T20:08:48.074Z,10.90
2023-04-16T20:11:14.979Z,10.90
2023-04-16T20:13:41.613Z,11.00
2023-04-16T20:16:09.208Z,11.00
2023-04-16T20:18:41.227Z,11.00
2023-04-16T20:21:08.237Z,11.00
2023-04-16T20:23:34.925Z,11.00
2023-04-16T20:26:01.751Z,11.00
2023-04-16T20:28:28.311Z,11.10
2023-04-16T20:30:55.052Z,11.00
2023-04-16T20:33:21.691Z,11.00
2023-04-16T20:35:49.067Z,11.00
2023-04-16T20:38:15.681Z,11.00
2023-04-16T20:40:44.662Z,11.00
2023-04-16T20:43:14.089Z,11.00
2023-04-16T20:45:41.107Z,11.00
2023-04-16T20:48:07.901Z,10.90
2023-04-16T20:50:34.653Z,10.90
2023-04-16T20:53:01.248Z,10.90
2023-04-16T20:55:27.864Z,10.90
2023-04-16T20:57:54.918Z,10.90
2023-04-16T21:00:22.339Z,10.90
2023-04-16T21:02:49.263Z,10.80
2023-04-16T21:05:16.305Z,10.80
2023-04-16T21:07:43.393Z,10.80
2023-04-16T21:10:10.866Z,10.80
2023-04-16T21:12:37.783Z,10.70
2023-04-16T21:15:04.799Z,10.70
2023-04-16T21:17:31.849Z,10.70
2023-04-16T21:19:58.563Z,10.60
2023-04-16T21:22:25.359Z,10.60
2023-04-16T21:24:52.045Z,10.70
2023-04-16T21:27:18.875Z,10.60
2023-04-16T21:29:45.694Z,10.60
2023-04-16T21:32:12.426Z,10.60
2023-04-16T21:34:39.177Z,10.60
2023-04-16T21:37:07.895Z,10.60
2023-04-16T21:39:34.586Z,10.50
2023-04-16T21:42:01.972Z,10.50
2023-04-16T21:44:31.136Z,10.50
2023-04-16T21:46:59.244Z,10.50
2023-04-16T21:49:25.969Z,10.50
2023-04-16T21:51:59.279Z,10.50
2023-04-16T21:54:26.047Z,10.50
2023-04-16T21:56:52.826Z,10.50
2023-04-16T21:59:19.487Z,10.50
2023-04-16T22:01:46.223Z,10.50
2023-04-16T22:04:12.877Z,10.40
2023-04-16T22:06:40.332Z,10.40
2023-04-16T22:09:07.182Z,10.40
2023-04-16T22:11:33.945Z,10.40
2023-04-16T22:14:00.725Z,10.40
2023-04-16T22:16:27.478Z,10.40
2023-04-16T22:18:54.954Z,10.40
2023-04-16T22:21:24.839Z,10.40
2023-04-16T22:23:54.152Z,10.30
2023-04-16T22:26:20.896Z,10.30
2023-04-16T22:28:47.498Z,10.30
2023-04-16T22:31:17.319Z,10.30
2023-04-16T22:33:44.013Z,10.20
2023-04-16T22:36:10.781Z,10.10
2023-04-16T22:38:38.627Z,10.00
2023-04-16T22:41:05.489Z,10.00
2023-04-16T22:43:32.128Z,9.90
2023-04-16T22:46:04.465Z,9.90
2023-04-16T22:48:31.610Z,9.80
2023-04-16T22:50:58.191Z,9.80
2023-04-16T22:53:24.938Z,9.80
2023-04-16T22:55:51.582Z,9.80
2023-04-16T22:58:18.190Z,9.80
2023-04-16T23:00:44.855Z,9.80
2023-04-16T23:03:11.647Z,9.80
2023-04-16T23:05:38.365Z,9.70
2023-04-16T23:08:05.060Z,9.70
2023-04-16T23:10:31.786Z,9.60
2023-04-16T23:12:58.441Z,9.60
2023-04-16T23:15:25.077Z,9.60
2023-04-16T23:17:52.095Z,9.60
2023-04-16T23:20:18.781Z,9.60
2023-04-16T23:22:46.387Z,9.60
2023-04-16T23:25:12.930Z,9.60
2023-04-16T23:27:39.564Z,9.60
2023-04-16T23:30:06.744Z,9.60
2023-04-16T23:32:34.267Z,9.60
2023-04-16T23:35:01.007Z,9.60
2023-04-16T23:37:27.674Z,9.60
2023-04-16T23:39:54.248Z,9.50
2023-04-16T23:42:20.937Z,9.60
2023-04-16T23:44:49.886Z,9.60
2023-04-16T23:47:16.451Z,9.60
2023-04-16T23:49:43.094Z,9.50
2023-04-16T23:52:09.736Z,9.50
2023-04-16T23:54:36.380Z,9.50
2023-04-16T23:57:03.041Z,9.50
2023-04-16T23:59:29.728Z,9.40
